Time;durP1;ratioP1;P1;durP2;ratioP2;P2;SDS_P1;SDS_P2;PMS_P1;PMS_P2;Temp;Humidity;BMP_temperature;BMP_pressure;BME280_temperature;BME280_humidity;BME280_pressure;Samples;Min_cycle;Max_cycle;Signal;HPM_P1;HPM_P2
2023/05/18 00:15:46;;;;;;;31.00;17.10;;;;;;;12.67;98.47;101056.70;97841;1270;59511;-96
2023/05/18 00:21:42;;;;;;;27.60;17.60;;;;;;;12.71;96.74;101055.08;108329;1264;64555;-96
2023/05/18 00:24:18;;;;;;;26.50;16.60;;;;;;;12.71;96.14;101046.29;108447;1266;71712;-96
2023/05/18 00:27:48;;;;;;;27.80;18.60;;;;;;;12.73;95.69;101051.04;89165;1270;58940;-96
2023/05/18 00:38:37;;;;;;;26.30;17.10;;;;;;;12.57;95.73;101047.50;107945;1264;64759;-95
2023/05/18 00:41:15;;;;;;;27.10;16.20;;;;;;;12.49;95.99;101043.74;101067;1262;73993;-96
2023/05/18 00:53:49;;;;;;;21.10;17.30;;;;;;;12.44;96.65;101035.64;100587;1263;64895;-96
2023/05/18 01:09:55;;;;;;;26.30;18.20;;;;;;;12.29;98.28;101047.78;105071;1264;63948;-96
2023/05/18 01:13:02;;;;;;;25.80;16.90;;;;;;;12.30;98.49;101045.28;106649;1268;71334;-96
2023/05/18 01:15:36;;;;;;;26.00;17.30;;;;;;;12.28;98.36;101041.55;107427;1266;61178;-95
2023/05/18 01:18:20;;;;;;;31.90;19.30;;;;;;;12.26;98.35;101049.89;108632;1265;61076;-96
2023/05/18 01:21:48;;;;;;;32.10;21.10;;;;;;;12.21;98.30;101044.56;107922;1265;74099;-96
2023/05/18 01:24:42;;;;;;;31.70;19.90;;;;;;;12.14;98.28;101040.42;107242;1266;64692;-95
2023/05/18 01:27:10;;;;;;;25.20;17.60;;;;;;;12.10;98.36;101038.97;106320;1267;73588;-93
2023/05/18 01:29:47;;;;;;;28.00;17.40;;;;;;;12.04;98.73;101038.98;107415;1266;63285;-94
2023/05/18 01:32:21;;;;;;;27.80;17.70;;;;;;;12.01;99.03;101042.59;107980;1270;61109;-96
2023/05/18 01:34:50;;;;;;;31.70;17.80;;;;;;;12.00;99.17;101047.23;108151;1265;75211;-96
2023/05/18 01:37:38;;;;;;;33.80;17.30;;;;;;;11.99;99.19;101048.48;108542;1266;64552;-96
2023/05/18 01:40:06;;;;;;;24.60;17.40;;;;;;;11.97;99.18;101047.57;108725;1266;71683;-96
2023/05/18 01:42:51;;;;;;;32.30;18.60;;;;;;;11.99;99.33;101051.35;108794;1265;59463;-96
2023/05/18 01:45:21;;;;;;;30.60;21.10;;;;;;;11.97;99.32;101048.79;108062;1266;60059;-96
2023/05/18 01:47:50;;;;;;;27.00;20.60;;;;;;;11.96;99.51;101049.39;105829;1270;73534;-95
2023/05/18 01:50:22;;;;;;;25.80;19.10;;;;;;;11.94;99.40;101050.92;106449;1270;64110;-96
2023/05/18 01:53:12;;;;;;;26.50;18.00;;;;;;;11.90;99.42;101050.64;106215;1267;73574;-96
2023/05/18 01:55:41;;;;;;;30.50;17.80;;;;;;;11.83;99.54;101055.90;106078;1266;64620;-96
2023/05/18 01:58:12;;;;;;;27.00;17.60;;;;;;;11.78;99.83;101057.96;105895;1271;61370;-96
2023/05/18 02:00:40;;;;;;;23.80;17.70;;;;;;;11.73;100.00;101058.57;106183;1265;74201;-96
2023/05/18 02:03:12;;;;;;;29.90;17.80;;;;;;;11.72;100.00;101064.95;106700;1273;65355;-95
2023/05/18 02:05:40;;;;;;;23.40;17.90;;;;;;;11.70;100.00;101063.15;108621;1269;73832;-95
2023/05/18 02:08:08;;;;;;;31.10;17.70;;;;;;;11.72;100.00;101066.39;108535;1268;62155;-94
2023/05/18 02:10:40;;;;;;;28.80;19.30;;;;;;;11.72;100.00;101069.17;107928;1268;61658;-95
2023/05/18 02:13:07;;;;;;;34.00;20.10;;;;;;;11.71;100.00;101070.63;108561;1268;74465;-95
2023/05/18 02:15:37;;;;;;;27.30;20.70;;;;;;;11.71;100.00;101071.98;106733;1270;64117;-96
2023/05/18 02:18:07;;;;;;;27.00;18.40;;;;;;;11.69;100.00;101070.87;105994;1279;73681;-95
2023/05/18 02:20:36;;;;;;;22.20;17.00;;;;;;;11.71;100.00;101074.45;106013;1278;63236;-96
2023/05/18 02:23:07;;;;;;;26.60;17.90;;;;;;;11.68;100.00;101071.51;106283;1282;61088;-96
2023/05/18 02:26:05;;;;;;;22.80;16.30;;;;;;;11.68;100.00;101077.09;106881;1271;76323;-96
2023/05/18 02:28:59;;;;;;;24.00;16.70;;;;;;;11.68;100.00;101078.88;108486;1267;64816;-96
2023/05/18 02:32:14;;;;;;;25.30;16.40;;;;;;;11.67;100.00;101076.77;108816;1266;70955;-96
2023/05/18 02:34:45;;;;;;;26.70;19.60;;;;;;;11.73;100.00;101076.48;108876;1265;61341;-96
2023/05/18 02:37:15;;;;;;;27.30;19.10;;;;;;;11.76;100.00;101077.85;108618;1267;61326;-96
2023/05/18 02:39:45;;;;;;;26.50;20.50;;;;;;;11.79;100.00;101079.98;107714;1267;74704;-96
2023/05/18 02:42:14;;;;;;;27.30;19.20;;;;;;;11.80;100.00;101079.70;107723;1267;63123;-96
2023/05/18 02:45:19;;;;;;;26.60;18.00;;;;;;;11.82;100.00;101083.48;107769;1267;73813;-96
2023/05/18 03:50:45;;;;;;;24.30;14.00;;;;;;;13.28;100.00;101105.20;108257;1269;63883;-96
2023/05/18 05:13:00;;;;;;;42.90;24.00;;;;;;;23.69;46.27;101141.66;100461;1273;72281;-96
2023/05/18 05:15:39;;;;;;;19.10;10.30;;;;;;;24.01;44.80;101140.75;108236;1267;65353;-96
2023/05/18 05:18:32;;;;;;;16.20;11.30;;;;;;;24.28;43.82;101137.08;108203;1271;73937;-91
2023/05/18 05:26:00;;;;;;;10.60;9.40;;;;;;;24.97;41.34;101139.96;107869;1270;59792;-96
2023/05/18 05:32:19;;;;;;;11.30;10.10;;;;;;;25.36;40.10;101135.34;98410;1263;984915;31
2023/05/18 05:38:43;;;;;;;22.30;12.60;;;;;;;25.66;38.88;101123.64;105288;1262;59541;31
2023/05/18 05:41:43;;;;;;;12.70;9.60;;;;;;;25.89;38.36;101120.13;108317;1270;61212;-96
2023/05/18 05:44:55;;;;;;;10.50;9.10;;;;;;;26.10;37.61;101119.77;108131;1274;75025;-90
2023/05/18 06:07:20;;;;;;;12.20;10.80;;;;;;;29.14;32.93;101106.45;108231;1258;988658;31
2023/05/18 06:30:38;;;;;;;11.40;9.30;;;;;;;30.15;30.58;101102.41;110890;1241;71033;-96
2023/05/18 06:40:10;;;;;;;12.50;10.00;;;;;;;30.60;30.00;101102.19;110293;1241;71609;-93
2023/05/18 06:43:08;;;;;;;13.90;10.00;;;;;;;30.74;29.20;101099.00;110978;1230;63860;-95
2023/05/18 06:46:20;;;;;;;12.10;9.30;;;;;;;30.98;29.56;101099.06;112198;1230;73525;-95
2023/05/18 06:48:56;;;;;;;17.00;10.40;;;;;;;31.39;29.41;101096.19;111622;1231;60482;-95
2023/05/18 06:51:28;;;;;;;19.10;9.90;;;;;;;31.72;28.99;101089.08;111786;1230;59585;-94
2023/05/18 06:54:01;;;;;;;12.70;8.20;;;;;;;32.03;28.65;101089.39;111840;1231;71676;-93
2023/05/18 06:56:56;;;;;;;10.80;9.70;;;;;;;32.28;27.77;101088.15;112412;1231;63747;31
2023/05/18 06:59:28;;;;;;;15.20;9.10;;;;;;;32.49;27.50;101089.28;112471;1232;72302;-96
2023/05/18 07:02:02;;;;;;;12.50;10.10;;;;;;;32.70;26.78;101088.63;112076;1231;60582;-96
2023/05/18 07:04:48;;;;;;;10.70;9.50;;;;;;;32.84;25.94;101088.09;112070;1236;58718;-94
2023/05/18 07:10:18;;;;;;;11.70;9.50;;;;;;;32.86;25.49;101090.48;112214;1231;65047;-95
2023/05/18 07:13:01;;;;;;;;;;;;;;;32.80;25.47;101082.65;111745;1231;76031;-95
2023/05/18 07:15:46;;;;;;;10.50;9.50;;;;;;;32.92;24.89;101085.43;112312;1231;61394;-96
2023/05/18 07:18:52;;;;;;;10.70;9.60;;;;;;;33.04;25.19;101083.77;112267;1231;60261;-96
2023/05/18 07:21:30;;;;;;;15.80;11.00;;;;;;;33.29;24.78;101080.05;112447;1231;73002;-96
2023/05/18 07:24:26;;;;;;;14.80;9.90;;;;;;;33.63;24.39;101085.45;112319;1231;62930;-96
2023/05/18 07:26:57;;;;;;;13.90;10.40;;;;;;;33.91;23.43;101086.13;112433;1230;71924;-94
2023/05/18 07:30:52;;;;;;;13.10;10.10;;;;;;;33.90;23.39;101078.38;112671;1230;59433;-94
2023/05/18 07:33:49;;;;;;;12.20;9.40;;;;;;;34.04;23.20;101079.74;112487;1237;59931;-95
2023/05/18 07:36:42;;;;;;;10.90;9.90;;;;;;;34.14;22.85;101079.92;110558;1234;74018;-96
2023/05/18 07:39:27;;;;;;;10.40;8.80;;;;;;;34.21;23.36;101078.79;112368;1234;63754;-95
2023/05/18 07:42:25;;;;;;;11.10;9.40;;;;;;;34.43;22.57;101075.06;112571;1234;74739;-95
2023/05/18 07:45:26;;;;;;;16.30;10.00;;;;;;;34.59;22.19;101075.30;112005;1235;59842;-96
2023/05/18 07:47:59;;;;;;;11.30;10.20;;;;;;;34.72;22.16;101071.52;112783;1230;60366;-96
2023/05/18 07:51:21;;;;;;;10.40;9.30;;;;;;;34.97;21.89;101075.10;112234;1231;72969;-95
2023/05/18 07:54:23;;;;;;;10.80;9.30;;;;;;;35.21;21.38;101080.09;112002;1231;63443;-96
2023/05/18 07:57:18;;;;;;;;;;;;;;;35.45;20.82;101079.14;111748;1231;72505;-95
2023/05/18 07:59:58;;;;;;;10.70;8.40;;;;;;;35.46;20.47;101075.72;111691;1231;60305;-95
2023/05/18 08:03:06;;;;;;;10.20;9.30;;;;;;;35.33;20.79;101079.98;111501;1231;60281;-95
2023/05/18 08:05:35;;;;;;;12.50;9.60;;;;;;;35.36;20.66;101077.35;111615;1231;72668;-96
2023/05/18 08:08:14;;;;;;;10.20;9.20;;;;;;;35.38;20.63;101074.55;112402;1231;63641;-96
2023/05/18 08:11:38;;;;;;;9.90;9.00;;;;;;;35.30;20.69;101074.37;112579;1230;73698;31
2023/05/18 08:24:33;;;;;;;9.50;8.60;;;;;;;35.98;19.83;101061.17;112539;1230;62407;-96
2023/05/18 08:34:16;;;;;;;19.40;8.30;;;;;;;35.77;18.98;101056.13;113051;1230;58677;-96
2023/05/18 08:40:22;;;;;;;9.90;8.90;;;;;;;35.53;19.29;101043.98;112617;1230;62356;-96
2023/05/18 08:42:58;;;;;;;14.10;8.20;;;;;;;35.68;19.10;101043.59;111918;1235;72549;-94
2023/05/18 08:49:30;;;;;;;13.10;7.90;;;;;;;36.04;18.40;101044.95;112707;1230;60770;-96
2023/05/18 08:52:33;;;;;;;11.70;8.20;;;;;;;36.18;18.43;101041.00;112301;1231;72274;-95
2023/05/18 08:55:20;;;;;;;11.70;7.90;;;;;;;36.08;18.12;101046.41;112259;1231;58522;-96
2023/05/18 09:02:08;;;;;;;9.30;8.10;;;;;;;35.49;17.68;101033.05;112482;1234;58983;-93
2023/05/18 09:05:15;;;;;;;16.30;9.10;;;;;;;35.21;18.08;101032.33;112263;1232;61119;31
2023/05/18 09:08:07;;;;;;;9.50;7.80;;;;;;;35.04;18.52;101026.04;112190;1235;72168;-95
2023/05/18 09:10:41;;;;;;;14.70;8.30;;;;;;;35.15;18.61;101022.02;111799;1239;64054;-95
2023/05/18 09:13:17;;;;;;;11.50;8.10;;;;;;;35.35;18.54;101028.35;111687;1240;72318;-95
2023/05/18 09:18:35;;;;;;;9.50;8.80;;;;;;;35.75;18.56;101031.41;106261;1288;599192;-94
2023/05/18 09:21:56;;;;;;;12.50;7.60;;;;;;;35.77;19.01;101030.80;107991;1264;58860;-94
2023/05/18 09:25:02;;;;;;;12.40;9.70;;;;;;;35.93;18.16;101025.02;108623;1259;59921;-96
2023/05/18 09:27:51;;;;;;;9.50;7.80;;;;;;;35.96;17.73;101019.88;108475;1262;74096;-96
2023/05/18 09:30:30;;;;;;;9.00;8.10;;;;;;;35.82;17.78;101012.96;108097;1261;64783;-95
2023/05/18 09:37:08;;;;;;;9.50;8.40;;;;;;;36.07;17.68;101011.45;104876;1291;600680;-95
2023/05/18 09:40:06;;;;;;;9.50;7.40;;;;;;;36.18;17.37;101007.26;108609;1255;61456;-96
2023/05/18 09:47:47;;;;;;;8.20;7.50;;;;;;;36.48;17.76;101005.77;108599;1254;71177;-94
2023/05/18 09:54:15;;;;;;;9.20;8.30;;;;;;;36.38;16.96;101004.88;106204;1267;71652;-96
2023/05/18 09:57:01;;;;;;;11.20;10.00;;;;;;;36.32;17.03;101000.42;108197;1267;59464;-94
2023/05/18 10:00:09;;;;;;;11.40;7.70;;;;;;;36.22;16.59;101000.41;108089;1267;59318;-95
2023/05/18 10:03:02;;;;;;;8.40;7.60;;;;;;;35.91;16.80;100999.98;108165;1265;72922;-96
2023/05/18 10:05:33;;;;;;;9.20;7.70;;;;;;;35.82;17.18;100994.14;108749;1267;62856;-96
2023/05/18 10:08:37;;;;;;;9.30;7.30;;;;;;;35.92;16.85;100995.73;108147;1265;73744;-93
2023/05/18 10:15:32;;;;;;;9.20;7.70;;;;;;;35.68;17.01;100989.39;100677;1265;59063;-94
2023/05/18 10:31:37;;;;;;;7.90;7.30;;;;;;;35.20;17.85;100969.09;108212;1261;59001;-93
2023/05/18 10:34:38;;;;;;;7.30;6.60;;;;;;;35.12;17.88;100964.67;108102;1267;73769;31
2023/05/18 10:37:29;;;;;;;8.50;7.80;;;;;;;35.11;17.95;100957.84;108000;1261;64751;31
2023/05/18 10:54:14;;;;;;;9.10;7.90;;;;;;;35.12;17.35;100951.80;107878;1270;66207;-96
2023/05/18 11:00:23;;;;;;;9.70;7.40;;;;;;;34.25;17.58;100947.23;107527;1260;58807;-96
2023/05/18 11:03:16;;;;;;;12.50;8.30;;;;;;;33.71;18.07;100953.85;108060;1267;65121;-96
2023/05/18 11:06:26;;;;;;;13.00;8.20;;;;;;;33.39;18.15;100948.20;108636;1268;72050;-95
2023/05/18 11:12:19;;;;;;;10.00;7.60;;;;;;;32.95;19.00;100946.43;103052;1267;71681;-96
2023/05/18 11:15:17;;;;;;;8.60;7.70;;;;;;;32.60;19.44;100942.30;107461;1270;59617;-96
2023/05/18 11:24:30;;;;;;;11.60;8.00;;;;;;;31.39;20.58;100941.80;108106;1266;63720;-96
2023/05/18 11:27:23;;;;;;;9.90;7.80;;;;;;;31.17;20.97;100942.64;108422;1270;72554;-96
2023/05/18 11:30:31;;;;;;;10.70;8.10;;;;;;;31.09;21.32;100940.41;108238;1267;61453;-96
2023/05/18 11:33:21;;;;;;;9.80;8.80;;;;;;;31.09;21.24;100935.04;107872;1266;61163;-91
2023/05/18 11:36:10;;;;;;;9.10;8.40;;;;;;;31.12;20.82;100933.30;108734;1267;73898;-96
2023/05/18 11:38:46;;;;;;;8.10;7.30;;;;;;;31.08;20.93;100929.59;107865;1267;62845;-94
2023/05/18 11:41:46;;;;;;;8.50;7.70;;;;;;;31.03;21.00;100926.50;108430;1267;73849;-95
2023/05/18 11:44:21;;;;;;;8.00;7.20;;;;;;;31.07;20.27;100922.79;107736;1267;59704;-96
2023/05/18 11:47:31;;;;;;;13.20;8.60;;;;;;;30.97;20.68;100925.79;108353;1263;62038;31
2023/05/18 11:53:44;;;;;;;16.00;8.50;;;;;;;30.40;20.83;100924.19;107384;1261;63919;31
2023/05/18 11:56:18;;;;;;;9.60;8.20;;;;;;;30.02;21.30;100927.32;106773;1268;75074;-93
2023/05/18 12:03:24;;;;;;;9.20;7.80;;;;;;;29.38;21.81;100911.23;108571;1264;58764;-93
2023/05/18 12:06:17;;;;;;;;;;;;;;;29.37;21.96;100906.67;108322;1265;71604;-95
2023/05/18 12:25:53;;;;;;;8.70;7.30;;;;;;;29.84;21.84;100904.19;104052;1296;1115037;-92
2023/05/18 12:38:21;;;;;;;11.20;8.30;;;;;;;29.29;22.51;100893.15;103683;1289;71708;-96
2023/05/18 12:41:44;;;;;;;7.70;6.90;;;;;;;29.21;22.19;100892.16;106537;1281;58966;-95
2023/05/18 13:14:48;;;;;;;18.00;13.70;;;;;;;27.78;23.32;100896.08;104407;1270;61047;31
2023/05/18 13:17:36;;;;;;;27.20;23.40;;;;;;;27.65;23.82;100893.65;107314;1270;61241;31
2023/05/18 13:30:41;;;;;;;13.20;7.70;;;;;;;27.53;24.63;100892.12;92888;1272;59080;31
2023/05/18 13:33:50;;;;;;;14.70;7.90;;;;;;;27.49;24.56;100898.40;107773;1270;60832;-95
2023/05/18 13:36:54;;;;;;;8.40;7.60;;;;;;;27.44;24.41;100903.33;107416;1270;73916;-93
2023/05/18 13:52:48;;;;;;;11.20;7.70;;;;;;;27.10;25.13;100891.84;107399;1275;71710;-95
2023/05/18 13:59:07;;;;;;;8.00;7.20;;;;;;;26.84;25.65;100893.69;104999;1267;981661;-93
2023/05/18 20:46:41;;;;;;;23.90;14.20;;;;;;;16.98;83.42;101014.08;107996;1277;60770;-96
2023/05/18 20:49:20;;;;;;;26.90;13.50;;;;;;;16.95;83.66;101017.83;108044;1270;71789;-96
2023/05/18 20:51:56;;;;;;;22.30;15.00;;;;;;;16.92;83.81;101018.25;107952;1276;63025;-95
2023/05/18 20:54:24;;;;;;;26.70;15.60;;;;;;;16.89;84.30;101016.88;107845;1277;71575;-96
2023/05/18 20:56:54;;;;;;;16.70;13.70;;;;;;;16.88;84.39;101016.13;107512;1282;60936;-95
2023/05/18 20:59:26;;;;;;;19.40;14.00;;;;;;;16.86;84.72;101017.48;107375;1276;60564;-94
2023/05/18 21:01:58;;;;;;;29.70;13.50;;;;;;;16.85;84.93;101016.53;107189;1282;74005;-95
2023/05/18 21:04:41;;;;;;;19.60;13.70;;;;;;;16.82;85.30;101010.75;107800;1277;62866;-95
2023/05/18 21:07:15;;;;;;;24.30;14.80;;;;;;;16.83;85.48;101011.40;107656;1276;71371;-94
2023/05/18 21:09:58;;;;;;;21.60;15.00;;;;;;;16.83;85.49;101012.09;107901;1277;60466;-97
2023/05/18 21:12:41;;;;;;;20.80;14.50;;;;;;;16.81;85.69;101007.98;107729;1273;60439;-96
2023/05/18 21:15:18;;;;;;;25.50;14.20;;;;;;;16.79;85.93;101007.46;108144;1275;73226;-95
2023/05/18 21:21:34;;;;;;;16.60;14.00;;;;;;;16.68;86.90;101007.94;105921;1276;72875;-96
2023/05/18 21:27:57;;;;;;;23.60;14.40;;;;;;;16.54;88.37;101012.44;87082;1277;60580;31
2023/05/18 21:51:48;;;;;;;22.30;15.00;;;;;;;16.64;87.49;101008.79;109373;1256;58917;31
2023/05/18 22:14:58;;;;;;;25.60;16.80;;;;;;;15.96;90.24;101015.67;111066;1243;63834;-96
2023/05/18 22:17:30;;;;;;;20.80;13.70;;;;;;;15.88;90.67;101015.02;111639;1233;72477;-96
2023/05/18 22:20:13;;;;;;;16.60;13.50;;;;;;;15.85;91.12;101017.91;111094;1234;60342;-96
2023/05/18 22:23:04;;;;;;;22.90;14.20;;;;;;;15.81;91.45;101016.27;112004;1237;59197;-96
2023/05/18 22:26:13;;;;;;;16.90;14.90;;;;;;;15.81;91.40;101019.48;111882;1230;71509;31
2023/05/18 22:28:45;;;;;;;20.30;14.90;;;;;;;15.81;91.23;101020.89;112337;1236;62882;-95
2023/05/18 22:31:58;;;;;;;18.80;15.40;;;;;;;15.80;90.98;101019.02;112165;1234;74863;-96
2023/05/18 22:34:43;;;;;;;22.80;16.40;;;;;;;15.76;90.99;101018.23;112116;1234;59636;-96
2023/05/18 22:37:44;;;;;;;20.60;15.50;;;;;;;15.72;91.13;101022.98;112261;1235;59473;-96
2023/05/18 22:40:16;;;;;;;19.90;15.00;;;;;;;15.66;91.28;101023.17;112126;1234;72736;-95
2023/05/18 22:42:56;;;;;;;17.00;15.10;;;;;;;15.62;91.77;101022.83;110121;1238;64056;-96
2023/05/18 22:48:53;;;;;;;22.10;15.50;;;;;;;15.54;91.88;101020.86;112243;1232;61490;-96
2023/05/18 23:04:49;;;;;;;23.80;16.90;;;;;;;15.50;91.39;101019.61;112280;1232;60587;-96
2023/05/18 23:20:03;;;;;;;20.00;16.90;;;;;;;15.47;92.81;101002.23;111587;1234;71227;31
